Time;durP1;ratioP1;P1;durP2;ratioP2;P2;SDS_P1;SDS_P2;PMS_P1;PMS_P2;Temp;Humidity;BMP_temperature;BMP_pressure;BME280_temperature;BME280_humidity;BME280_pressure;Samples;Min_cycle;Max_cycle;Signal;HPM_P1;HPM_P2
2021/07/08 00:00:47;;;;;;;13.65;9.35;;;;;;;15.06;52.05;101888.16;5023054;28;20451;-68
2021/07/08 00:03:13;;;;;;;13.02;9.45;;;;;;;15.00;52.51;101883.13;5011204;28;20491;-68
2021/07/08 00:05:41;;;;;;;8.85;7.80;;;;;;;15.11;52.21;101887.94;5005416;28;20042;-68
2021/07/08 00:08:07;;;;;;;14.20;8.30;;;;;;;15.24;51.67;101888.28;5019918;28;20398;-68
2021/07/08 00:10:38;;;;;;;9.82;7.90;;;;;;;15.32;51.56;101894.09;5008952;28;20120;-68
2021/07/08 00:13:05;;;;;;;12.80;8.25;;;;;;;15.26;51.54;101895.22;5009680;28;20810;-69
2021/07/08 00:15:32;;;;;;;17.08;9.32;;;;;;;15.17;51.44;101891.19;5011293;28;20048;-68
2021/07/08 00:17:58;;;;;;;15.55;7.60;;;;;;;15.13;51.69;101897.50;5007900;28;20034;-67
2021/07/08 00:20:27;;;;;;;11.40;6.88;;;;;;;15.13;51.62;101894.84;5006771;28;20038;-69
2021/07/08 00:22:53;;;;;;;16.00;8.25;;;;;;;15.11;51.99;101891.44;5007000;28;20042;-68
2021/07/08 00:25:22;;;;;;;15.15;9.43;;;;;;;15.13;51.54;101894.84;5008382;28;20038;-68
2021/07/08 00:27:48;;;;;;;11.38;9.40;;;;;;;15.08;51.54;101893.31;5005651;28;20045;-68
2021/07/08 00:30:14;;;;;;;10.57;9.00;;;;;;;14.98;51.94;101890.25;5001177;28;20029;-68
2021/07/08 00:32:42;;;;;;;17.25;10.05;;;;;;;14.95;52.44;101891.22;5015599;28;20034;-68
2021/07/08 00:35:10;;;;;;;12.60;9.52;;;;;;;14.91;52.80;101894.91;5008739;28;20034;-68
2021/07/08 00:37:36;;;;;;;15.48;9.85;;;;;;;14.85;52.88;101899.59;5009875;28;20120;-68
2021/07/08 00:40:03;;;;;;;19.77;11.85;;;;;;;14.87;53.45;101898.59;5022602;28;20026;-68
2021/07/08 00:42:29;;;;;;;16.40;11.55;;;;;;;14.87;53.66;101897.75;5017062;28;20057;-68
2021/07/08 00:44:54;;;;;;;23.17;13.00;;;;;;;14.92;53.90;101895.75;5003952;28;20065;-67
2021/07/08 00:47:20;;;;;;;18.02;12.55;;;;;;;14.91;53.93;101899.34;5001843;28;20018;-68
2021/07/08 00:49:45;;;;;;;22.35;12.98;;;;;;;14.96;53.68;101902.63;5001685;28;20022;-68
2021/07/08 00:52:11;;;;;;;17.17;11.73;;;;;;;14.86;53.84;101901.31;5010847;28;20289;-69
2021/07/08 00:54:36;;;;;;;17.83;11.43;;;;;;;14.98;53.26;101901.63;5008065;28;20048;-70
2021/07/08 00:57:05;;;;;;;17.15;11.70;;;;;;;15.03;53.09;101903.22;5008209;28;20062;-68
2021/07/08 00:59:31;;;;;;;15.15;10.32;;;;;;;15.02;53.09;101907.63;5008767;28;20037;-68
2021/07/08 01:01:58;;;;;;;17.98;11.40;;;;;;;14.96;52.91;101902.63;5008362;28;20041;-68
2021/07/08 01:04:24;;;;;;;16.75;11.65;;;;;;;14.84;53.05;101906.63;5008269;28;20076;-67
2021/07/08 01:06:50;;;;;;;19.67;12.07;;;;;;;14.79;53.31;101912.97;5008824;28;20041;-68
2021/07/08 01:09:16;;;;;;;17.45;11.45;;;;;;;14.72;53.29;101909.75;4989644;28;20060;-67
2021/07/08 01:11:42;;;;;;;16.33;11.45;;;;;;;14.72;53.18;101912.38;5009214;28;20114;-68
2021/07/08 01:14:08;;;;;;;12.52;9.90;;;;;;;14.83;53.16;101909.31;5006447;28;20038;-70
2021/07/08 01:16:34;;;;;;;19.67;12.38;;;;;;;14.76;53.08;101909.56;5010492;28;20057;-68
2021/07/08 01:19:01;;;;;;;14.75;12.13;;;;;;;14.69;53.11;101900.22;5010175;28;20030;-68
2021/07/08 01:21:33;;;;;;;15.32;10.60;;;;;;;14.68;53.22;101903.78;4992949;28;20069;-68
2021/07/08 01:24:01;;;;;;;13.98;10.30;;;;;;;14.66;53.08;101900.34;5008968;28;20041;-67
2021/07/08 01:26:27;;;;;;;18.13;12.98;;;;;;;14.58;53.32;101897.16;5008117;28;20057;-68
2021/07/08 01:28:54;;;;;;;18.83;11.80;;;;;;;14.67;52.88;101891.53;5007699;28;20132;-68
2021/07/08 01:31:22;;;;;;;17.65;11.93;;;;;;;14.72;52.69;101884.31;4993843;28;20042;-68
2021/07/08 01:33:48;;;;;;;18.23;12.70;;;;;;;14.83;52.73;101890.88;4993173;28;20037;-68
2021/07/08 01:36:14;;;;;;;17.13;11.82;;;;;;;14.73;52.93;101891.28;5008624;28;20046;-67
2021/07/08 01:38:40;;;;;;;14.27;11.48;;;;;;;14.73;52.74;101886.00;5010910;28;20132;-68
2021/07/08 01:41:06;;;;;;;17.58;12.40;;;;;;;14.61;52.68;101886.50;5011276;28;20041;-68
2021/07/08 01:43:37;;;;;;;14.20;9.18;;;;;;;14.63;52.71;101883.81;5021484;28;20042;-68
2021/07/08 01:46:08;;;;;;;13.45;10.63;;;;;;;14.64;52.75;101882.91;5025005;28;20041;-68
2021/07/08 01:48:34;;;;;;;14.27;11.55;;;;;;;14.58;52.39;101881.38;5002625;28;20030;-69
2021/07/08 01:51:03;;;;;;;15.52;12.07;;;;;;;14.48;52.52;101872.16;5004696;28;20041;-68
2021/07/08 01:53:29;;;;;;;19.27;11.30;;;;;;;14.42;52.63;101869.78;5004685;28;20034;-69
2021/07/08 01:55:57;;;;;;;17.10;12.27;;;;;;;14.30;52.82;101876.34;5015698;28;20049;-68
2021/07/08 01:58:23;;;;;;;16.75;11.75;;;;;;;14.25;52.92;101881.78;5018645;28;20121;-69
2021/07/08 02:00:50;;;;;;;15.70;11.10;;;;;;;14.34;53.07;101878.81;5012659;28;20041;-68
2021/07/08 02:03:16;;;;;;;20.00;13.05;;;;;;;14.42;52.75;101877.66;5014083;28;20167;-69
2021/07/08 02:05:41;;;;;;;21.38;12.90;;;;;;;14.38;53.00;101881.31;5013770;28;20399;-69
2021/07/08 02:08:07;;;;;;;22.65;12.52;;;;;;;14.39;52.92;101890.91;5013156;28;20152;-69
2021/07/08 02:10:33;;;;;;;19.88;12.95;;;;;;;14.32;53.48;101890.28;5013900;28;20034;-69
2021/07/08 02:12:58;;;;;;;20.95;12.40;;;;;;;14.31;53.20;101894.69;5014844;28;20106;-70
2021/07/08 02:15:24;;;;;;;19.50;12.48;;;;;;;14.35;53.44;101891.03;5008829;28;20067;-69
2021/07/08 02:17:50;;;;;;;20.20;12.25;;;;;;;14.36;53.51;101887.47;5014736;28;20064;-69
2021/07/08 02:20:16;;;;;;;12.55;9.05;;;;;;;14.45;53.22;101895.94;5018773;28;20057;-68
2021/07/08 02:22:43;;;;;;;15.48;10.80;;;;;;;14.44;52.87;101899.50;5012009;28;20037;-69
2021/07/08 02:25:10;;;;;;;17.75;11.07;;;;;;;14.33;53.22;101898.13;5018816;28;20030;-69
2021/07/08 02:27:37;;;;;;;21.45;13.27;;;;;;;14.24;53.48;101903.75;5002984;28;20037;-69
2021/07/08 02:30:14;;;;;;;15.68;10.88;;;;;;;14.33;53.72;101908.63;5011456;28;20059;-69
2021/07/08 02:32:41;;;;;;;17.70;11.50;;;;;;;14.41;53.45;101910.13;5009609;28;20585;-68
2021/07/08 02:35:08;;;;;;;22.48;13.07;;;;;;;14.59;53.11;101912.06;5013489;28;20033;-68
2021/07/08 02:37:35;;;;;;;17.77;12.23;;;;;;;14.64;53.06;101910.06;5011813;28;20064;-68
2021/07/08 02:40:03;;;;;;;14.45;10.80;;;;;;;14.65;52.89;101914.41;5000896;28;20029;-68
2021/07/08 02:42:28;;;;;;;16.40;12.25;;;;;;;14.62;53.17;101921.59;5015036;28;20148;-70
2021/07/08 02:44:54;;;;;;;16.88;12.27;;;;;;;14.66;53.06;101912.66;5016038;28;20109;-67
2021/07/08 02:47:19;;;;;;;20.23;12.45;;;;;;;14.67;53.36;101923.09;4999355;28;20530;-68
2021/07/08 02:49:45;;;;;;;17.10;11.52;;;;;;;14.73;53.00;101912.31;5012688;28;20667;-67
2021/07/08 02:52:10;;;;;;;19.48;12.70;;;;;;;14.71;52.77;101918.56;5012500;28;20066;-68
2021/07/08 02:54:36;;;;;;;19.73;11.55;;;;;;;14.91;52.85;101908.06;5015443;28;20517;-69
2021/07/08 02:57:02;;;;;;;17.65;10.68;;;;;;;14.92;52.63;101916.81;5012580;28;20597;-68
2021/07/08 02:59:27;;;;;;;14.95;11.43;;;;;;;14.96;52.59;101916.63;5015478;28;20037;-68
2021/07/08 03:01:53;;;;;;;17.65;13.10;;;;;;;14.94;52.79;101909.72;5017345;28;20038;-69
2021/07/08 03:04:18;;;;;;;19.73;11.77;;;;;;;14.93;52.74;101902.75;5015406;28;20860;-69
2021/07/08 03:06:44;;;;;;;15.23;10.52;;;;;;;14.87;52.85;101909.13;4995704;28;20044;-68
2021/07/08 03:09:09;;;;;;;13.23;10.07;;;;;;;14.86;52.81;101911.84;5009741;28;20026;-68
2021/07/08 03:11:35;;;;;;;18.52;12.18;;;;;;;14.74;52.85;101906.13;5010653;28;20060;-69
2021/07/08 03:14:01;;;;;;;18.85;10.98;;;;;;;14.66;53.05;101908.25;5024341;28;20030;-69
2021/07/08 03:16:26;;;;;;;15.75;11.20;;;;;;;14.54;53.08;101906.97;5013429;28;20034;-69
2021/07/08 03:18:52;;;;;;;16.85;11.50;;;;;;;14.43;53.24;101908.31;5011524;28;20145;-68
2021/07/08 03:21:17;;;;;;;16.58;11.02;;;;;;;14.38;53.60;101910.22;5012451;28;20030;-69
2021/07/08 03:23:43;;;;;;;14.50;10.00;;;;;;;14.42;53.38;101901.34;5006584;28;20048;-69
2021/07/08 03:26:08;;;;;;;16.73;11.07;;;;;;;14.34;53.55;101913.00;5008353;28;20027;-69
2021/07/08 03:28:34;;;;;;;15.18;10.90;;;;;;;14.25;53.79;101915.13;5011750;28;20095;-68
2021/07/08 03:30:59;;;;;;;14.75;11.27;;;;;;;14.34;53.72;101905.13;5011391;28;20073;-69
2021/07/08 03:33:25;;;;;;;13.35;9.48;;;;;;;14.46;53.58;101901.16;4995959;28;20029;-68
2021/07/08 03:35:51;;;;;;;12.82;10.15;;;;;;;14.48;53.52;101898.47;4994177;28;20045;-68
2021/07/08 03:38:16;;;;;;;16.58;12.10;;;;;;;14.46;53.52;101900.31;5008629;28;20034;-68
2021/07/08 03:40:42;;;;;;;15.63;10.63;;;;;;;14.44;53.50;101899.50;5010143;28;20273;-68
2021/07/08 03:43:08;;;;;;;14.30;10.43;;;;;;;14.48;53.51;101901.09;5010050;28;20179;-69
2021/07/08 03:45:33;;;;;;;15.23;9.50;;;;;;;14.54;53.62;101895.56;5000883;28;20030;-68
2021/07/08 03:47:59;;;;;;;12.32;8.75;;;;;;;14.62;53.21;101896.13;4988550;28;20676;-69
2021/07/08 03:50:25;;;;;;;13.00;9.13;;;;;;;14.62;53.11;101887.38;5005292;28;20042;-68
2021/07/08 03:52:50;;;;;;;16.45;9.25;;;;;;;14.55;53.26;101898.16;5008189;28;20594;-68
2021/07/08 03:55:18;;;;;;;12.30;8.23;;;;;;;14.46;53.41;101897.69;5025723;28;20030;-69
2021/07/08 03:57:53;;;;;;;13.10;8.57;;;;;;;14.67;52.50;101907.31;5011715;28;20190;-67
2021/07/08 04:00:34;;;;;;;13.23;8.88;;;;;;;14.69;52.76;101902.84;5005685;28;20027;-68
2021/07/08 04:03:03;;;;;;;13.25;9.65;;;;;;;14.72;52.37;101900.09;5020638;28;20863;-68
2021/07/08 04:05:29;;;;;;;16.60;9.52;;;;;;;14.75;52.55;101902.59;5005329;28;20068;-68
2021/07/08 04:07:55;;;;;;;15.10;10.85;;;;;;;14.68;52.71;101905.53;5000290;28;20042;-67
2021/07/08 04:10:21;;;;;;;10.35;9.25;;;;;;;14.56;52.86;101909.53;5012069;28;20057;-68
2021/07/08 04:12:47;;;;;;;12.93;8.40;;;;;;;14.58;53.02;101912.94;5009508;28;20047;-68
2021/07/08 04:15:13;;;;;;;11.68;9.15;;;;;;;14.77;52.64;101918.34;5011517;28;20037;-68
2021/07/08 04:17:39;;;;;;;15.63;9.00;;;;;;;14.73;52.77;101922.84;5011980;28;20045;-68
2021/07/08 04:20:09;;;;;;;15.85;9.10;;;;;;;14.81;52.05;101925.16;5001670;28;20045;-68
2021/07/08 04:22:36;;;;;;;11.02;8.68;;;;;;;14.86;52.19;101927.63;5007387;28;20054;-69
2021/07/08 04:25:03;;;;;;;17.45;10.80;;;;;;;14.83;52.29;101927.75;4988597;28;20049;-68
2021/07/08 04:27:29;;;;;;;13.40;9.45;;;;;;;14.93;52.18;101923.81;5010581;28;20080;-68
2021/07/08 04:29:54;;;;;;;13.65;9.52;;;;;;;14.89;52.24;101925.69;5011780;28;20033;-69
2021/07/08 04:32:20;;;;;;;14.90;9.63;;;;;;;14.88;52.26;101929.28;5005515;28;20049;-70
2021/07/08 04:34:45;;;;;;;12.52;9.35;;;;;;;14.94;52.13;101926.38;5013360;28;20924;-68
2021/07/08 04:37:11;;;;;;;12.30;9.43;;;;;;;14.97;52.16;101936.78;5008801;28;20053;-68
2021/07/08 04:39:36;;;;;;;14.05;11.00;;;;;;;14.88;52.29;101942.44;5011800;28;20112;-68
2021/07/08 04:42:03;;;;;;;11.98;10.00;;;;;;;14.93;52.37;101944.88;5004289;28;20722;-68
2021/07/08 04:44:28;;;;;;;13.15;9.32;;;;;;;15.02;52.42;101949.75;5010254;28;20041;-68
2021/07/08 04:46:54;;;;;;;13.45;10.80;;;;;;;15.08;52.19;101944.25;5006779;28;20042;-68
2021/07/08 04:49:20;;;;;;;15.63;10.48;;;;;;;15.11;52.34;101944.09;5010388;28;20089;-69
2021/07/08 04:51:45;;;;;;;13.00;9.68;;;;;;;15.27;51.86;101943.47;5008591;28;20587;-68
2021/07/08 04:54:11;;;;;;;12.48;8.90;;;;;;;15.49;51.52;101949.53;4989147;28;20044;-68
2021/07/08 04:56:37;;;;;;;8.60;7.70;;;;;;;15.54;51.49;101950.16;5006020;28;20040;-68
2021/07/08 04:59:02;;;;;;;13.13;7.93;;;;;;;15.65;51.71;101949.69;5006160;28;20093;-68
2021/07/08 05:01:28;;;;;;;12.05;7.70;;;;;;;15.71;51.19;101953.84;5005913;28;20037;-68
2021/07/08 05:03:58;;;;;;;11.95;8.07;;;;;;;15.73;51.03;101946.75;4991897;28;20033;-69
2021/07/08 05:06:23;;;;;;;14.13;9.25;;;;;;;15.68;50.88;101944.28;5015914;28;20054;-68
2021/07/08 05:08:50;;;;;;;11.25;8.48;;;;;;;15.63;50.65;101945.41;4989840;28;20046;-68
2021/07/08 05:11:15;;;;;;;14.40;9.82;;;;;;;15.55;50.76;101938.72;5013799;28;20064;-68
2021/07/08 05:13:41;;;;;;;10.23;8.27;;;;;;;15.73;50.99;101944.94;5009700;28;20497;-68
2021/07/08 05:16:06;;;;;;;11.93;8.93;;;;;;;15.98;50.09;101952.59;5011978;28;20025;-67
2021/07/08 05:18:32;;;;;;;15.60;10.05;;;;;;;16.07;49.36;101945.22;5010695;28;20034;-67
2021/07/08 05:20:59;;;;;;;16.95;9.50;;;;;;;16.03;50.17;101948.94;5017384;28;20034;-67
2021/07/08 05:23:26;;;;;;;13.27;8.25;;;;;;;16.08;49.71;101942.50;5007273;28;20037;-68
2021/07/08 05:25:52;;;;;;;13.07;9.02;;;;;;;16.18;49.78;101938.50;5011880;28;20030;-69
2021/07/08 05:28:18;;;;;;;11.20;7.10;;;;;;;16.18;49.45;101943.78;5005514;28;20423;-68
2021/07/08 05:30:44;;;;;;;9.80;8.35;;;;;;;16.12;49.60;101943.22;5023579;28;20050;-68
2021/07/08 05:33:10;;;;;;;12.52;9.05;;;;;;;16.00;49.80;101942.00;4989608;28;20109;-68
2021/07/08 05:35:35;;;;;;;13.43;8.98;;;;;;;15.98;50.32;101947.31;5009189;28;20271;-68
2021/07/08 05:38:01;;;;;;;14.05;9.07;;;;;;;15.95;50.66;101952.75;5010796;28;20041;-69
2021/07/08 05:40:27;;;;;;;13.93;8.68;;;;;;;15.97;50.50;101943.00;5007544;28;20042;-69
2021/07/08 05:42:52;;;;;;;11.68;9.05;;;;;;;16.08;50.43;101953.03;5006187;28;20038;-69
2021/07/08 05:45:20;;;;;;;13.48;9.98;;;;;;;16.65;49.52;101947.72;5008609;28;20041;-68
2021/07/08 05:47:45;;;;;;;11.60;7.20;;;;;;;18.37;47.14;101948.53;5014847;28;20054;-68
2021/07/08 05:50:11;;;;;;;13.02;8.05;;;;;;;18.96;44.37;101944.25;5006556;28;20037;-68
2021/07/08 05:52:36;;;;;;;12.63;8.82;;;;;;;20.15;42.38;101947.63;5007925;28;20414;-68
2021/07/08 05:55:03;;;;;;;10.20;7.88;;;;;;;22.39;37.60;101945.63;5007390;28;20052;-70
2021/07/08 05:57:29;;;;;;;12.25;7.00;;;;;;;23.86;33.35;101951.38;5009604;28;20041;-69
2021/07/08 05:59:54;;;;;;;7.82;5.97;;;;;;;24.85;30.66;101943.16;5006267;28;20072;-69
2021/07/08 06:02:20;;;;;;;7.93;5.90;;;;;;;25.39;30.23;101949.28;5003343;28;20116;-69
2021/07/08 06:04:46;;;;;;;5.68;4.95;;;;;;;24.78;31.66;101949.19;5012694;28;20535;-69
2021/07/08 06:07:12;;;;;;;6.53;4.38;;;;;;;25.76;29.61;101950.63;5002052;28;20480;-69
2021/07/08 06:09:37;;;;;;;8.40;5.43;;;;;;;25.71;30.17;101944.78;4991789;28;20042;-69
2021/07/08 06:12:03;;;;;;;9.32;5.07;;;;;;;25.49;30.51;101949.34;4998302;28;20056;-69
2021/07/08 06:14:29;;;;;;;7.68;5.15;;;;;;;25.83;30.60;101947.25;5003616;28;20026;-70
2021/07/08 06:16:55;;;;;;;5.53;3.60;;;;;;;28.07;27.65;101951.47;4998128;28;20218;-70
2021/07/08 06:19:20;;;;;;;9.35;4.50;;;;;;;27.78;26.80;101960.53;5003711;28;20029;-68
2021/07/08 06:21:48;;;;;;;7.00;4.43;;;;;;;26.42;30.54;101963.44;5002799;28;20435;-68
2021/07/08 06:24:15;;;;;;;5.85;4.45;;;;;;;27.17;28.65;101955.69;4997269;28;20060;-70
2021/07/08 06:26:40;;;;;;;7.72;4.45;;;;;;;27.45;28.28;101951.19;5014907;28;20070;-68
2021/07/08 06:29:06;;;;;;;7.95;4.00;;;;;;;28.03;26.80;101952.78;5002434;28;20364;-70
2021/07/08 06:31:31;;;;;;;5.18;4.28;;;;;;;28.79;25.88;101952.38;5003345;28;20056;-69
2021/07/08 06:33:57;;;;;;;6.18;4.55;;;;;;;29.11;25.92;101946.41;4999314;28;20093;-70
2021/07/08 06:36:23;;;;;;;5.20;3.70;;;;;;;30.25;24.41;101955.97;5011397;28;20684;-69
2021/07/08 06:38:48;;;;;;;7.20;3.47;;;;;;;30.91;22.65;101956.00;5004168;28;20403;-70
2021/07/08 06:41:14;;;;;;;5.63;3.33;;;;;;;31.10;23.04;101954.81;5010509;28;20034;-69
2021/07/08 06:43:39;;;;;;;6.45;3.30;;;;;;;31.62;23.98;101962.41;5016608;28;20555;-69
2021/07/08 06:46:05;;;;;;;8.07;3.33;;;;;;;31.96;22.27;101962.13;5005641;28;20034;-69
2021/07/08 06:48:31;;;;;;;4.07;2.28;;;;;;;32.57;22.19;101974.91;5012602;28;20442;-68
2021/07/08 06:50:56;;;;;;;4.57;2.45;;;;;;;33.01;20.44;101974.16;5002558;28;20077;-69
2021/07/08 06:53:22;;;;;;;5.15;2.60;;;;;;;31.72;21.46;101986.56;5005039;28;20642;-70
2021/07/08 06:55:48;;;;;;;7.85;3.58;;;;;;;30.92;22.82;101974.72;5003366;28;20523;-68
2021/07/08 06:58:14;;;;;;;6.68;3.13;;;;;;;31.14;23.01;101975.91;5003971;28;20053;-68
2021/07/08 07:00:41;;;;;;;6.88;3.00;;;;;;;31.07;24.14;101977.59;4999691;28;20121;-69
2021/07/08 07:03:07;;;;;;;4.95;3.30;;;;;;;30.13;24.57;101974.31;5017607;28;20037;-69
2021/07/08 07:05:33;;;;;;;6.53;2.95;;;;;;;28.92;25.33;101973.47;5002088;28;20163;-69
2021/07/08 07:07:59;;;;;;;6.18;3.75;;;;;;;27.01;27.77;101981.25;5001466;28;20096;-69
2021/07/08 07:10:27;;;;;;;3.13;2.47;;;;;;;27.76;28.81;101986.72;5006316;28;20030;-69
2021/07/08 07:12:54;;;;;;;3.92;2.83;;;;;;;29.21;25.69;101983.97;5006022;28;20050;-69
2021/07/08 07:15:25;;;;;;;7.75;2.90;;;;;;;31.34;23.56;101986.31;5000525;28;20041;-69
2021/07/08 07:17:51;;;;;;;5.57;2.67;;;;;;;32.12;21.93;101979.25;4997302;28;20033;-69
2021/07/08 07:20:19;;;;;;;5.15;3.17;;;;;;;32.33;21.71;101979.44;5000174;28;20557;-70
2021/07/08 07:22:45;;;;;;;5.18;2.85;;;;;;;32.79;21.52;101986.72;5000661;28;20127;-69
2021/07/08 07:25:13;;;;;;;4.43;2.53;;;;;;;33.71;21.05;101989.16;5001098;28;20030;-70
2021/07/08 07:27:39;;;;;;;6.18;2.58;;;;;;;33.51;20.23;101988.88;5003614;28;20041;-70
2021/07/08 07:30:06;;;;;;;3.88;2.53;;;;;;;32.44;21.72;101989.88;5004141;28;20856;-70
2021/07/08 07:32:32;;;;;;;4.00;2.22;;;;;;;31.57;21.76;102002.66;5001117;28;20040;-70
2021/07/08 07:34:58;;;;;;;5.18;2.33;;;;;;;29.91;23.24;101999.16;5014566;28;20057;-70
2021/07/08 07:37:25;;;;;;;3.53;2.13;;;;;;;27.21;27.34;102002.72;5003262;28;20840;-69
2021/07/08 07:39:50;;;;;;;5.90;2.90;;;;;;;26.41;28.39;102016.22;5002722;28;20029;-69
2021/07/08 07:42:17;;;;;;;7.07;3.83;;;;;;;26.35;29.44;102015.91;5000346;28;20107;-69
2021/07/08 07:44:47;;;;;;;6.20;2.45;;;;;;;27.88;27.55;102017.75;4989190;28;20552;-69
2021/07/08 07:47:13;;;;;;;2.65;1.45;;;;;;;29.69;25.93;102011.38;5000408;28;20030;-69
2021/07/08 07:49:38;;;;;;;3.72;2.28;;;;;;;30.80;23.95;102009.31;5000024;28;20080;-70
2021/07/08 07:52:05;;;;;;;4.18;2.78;;;;;;;30.67;23.73;102008.97;4987768;28;20391;-69
2021/07/08 07:54:35;;;;;;;5.47;2.15;;;;;;;31.67;22.60;102003.25;5011804;28;20449;-70
2021/07/08 07:57:03;;;;;;;9.70;2.25;;;;;;;31.79;22.69;102009.16;5002201;28;20082;-67
2021/07/08 07:59:29;;;;;;;5.47;2.20;;;;;;;30.69;23.48;102009.66;4994059;28;20034;-68
2021/07/08 08:01:54;;;;;;;6.68;1.73;;;;;;;31.00;22.90;102008.94;5001024;28;20590;-69
2021/07/08 08:04:20;;;;;;;3.05;1.60;;;;;;;31.94;21.92;102012.81;4998609;28;20191;-69
2021/07/08 08:09:30;;;;;;;7.45;2.00;;;;;;;31.50;21.48;102005.19;5003978;28;20033;-69
2021/07/08 08:11:56;;;;;;;4.53;1.80;;;;;;;32.22;21.53;102015.03;5002827;28;20048;-68
2021/07/08 08:14:22;;;;;;;5.20;1.63;;;;;;;31.81;20.74;102020.63;5001246;28;20038;-69
2021/07/08 08:16:47;;;;;;;3.92;1.42;;;;;;;32.54;20.91;102021.25;5004276;28;20113;-68
2021/07/08 08:19:13;;;;;;;6.90;1.98;;;;;;;32.24;21.17;102013.81;5003041;28;20546;-69
2021/07/08 08:21:39;;;;;;;4.28;1.60;;;;;;;32.70;20.17;102013.03;5002723;28;20034;-70
2021/07/08 08:24:04;;;;;;;3.28;1.95;;;;;;;32.72;20.82;102016.38;5000409;28;20038;-72
2021/07/08 08:26:30;;;;;;;3.05;1.73;;;;;;;31.73;21.10;101999.03;5003613;28;20514;-70
2021/07/08 08:28:56;;;;;;;7.53;2.20;;;;;;;31.19;22.01;102003.22;5000495;28;20525;-69
2021/07/08 08:31:21;;;;;;;3.60;1.48;;;;;;;31.69;21.55;102003.94;5002457;28;20042;-70
2021/07/08 08:33:47;;;;;;;3.13;1.13;;;;;;;32.40;20.54;102009.34;4992500;28;20040;-69
2021/07/08 08:36:13;;;;;;;3.38;1.00;;;;;;;32.76;18.82;102000.59;5003306;28;20038;-69
2021/07/08 08:38:39;;;;;;;1.88;1.30;;;;;;;33.10;19.51;102007.41;5019778;28;20061;-70
2021/07/08 08:41:05;;;;;;;3.67;1.50;;;;;;;33.81;18.95;102007.81;5000578;28;20063;-69
2021/07/08 08:43:31;;;;;;;6.78;1.60;;;;;;;34.86;18.08;102007.25;4999527;28;20034;-68
2021/07/08 08:45:59;;;;;;;2.70;1.20;;;;;;;33.60;18.58;102011.31;5001248;28;20443;-69
2021/07/08 08:48:25;;;;;;;2.72;0.85;;;;;;;34.90;17.33;102008.53;5007239;28;20033;-70
2021/07/08 08:50:51;;;;;;;3.97;1.15;;;;;;;35.79;18.04;102008.91;4998647;28;20042;-69
2021/07/08 08:53:18;;;;;;;5.30;1.17;;;;;;;35.27;15.55;102009.25;5000240;28;20077;-69
2021/07/08 08:55:46;;;;;;;4.18;1.65;;;;;;;34.82;17.61;102011.44;4993781;28;20381;-71
2021/07/08 08:58:15;;;;;;;1.60;0.75;;;;;;;33.51;18.03;102026.81;5003696;28;20193;-70
2021/07/08 09:00:42;;;;;;;4.03;1.13;;;;;;;34.79;16.76;102025.38;5013422;28;20425;-70
2021/07/08 09:03:16;;;;;;;4.90;1.35;;;;;;;34.82;17.12;102022.28;4996365;28;20058;-69
2021/07/08 09:05:45;;;;;;;5.10;0.90;;;;;;;35.92;17.56;102025.28;5002215;28;20040;-69
2021/07/08 09:08:19;;;;;;;1.08;0.60;;;;;;;34.53;16.49;102025.97;4999703;28;20025;-70
2021/07/08 09:11:15;;;;;;;2.50;0.60;;;;;;;35.12;15.84;102011.25;4998579;28;20035;-69
2021/07/08 09:13:45;;;;;;;1.83;0.88;;;;;;;33.81;16.64;102019.50;5001233;28;20098;-69
2021/07/08 09:16:17;;;;;;;2.10;0.63;;;;;;;34.46;17.60;102017.78;5000704;28;20044;-69
2021/07/08 09:19:17;;;;;;;3.72;1.23;;;;;;;34.01;18.55;102022.47;4994422;28;20343;-69
2021/07/08 09:21:45;;;;;;;2.17;0.97;;;;;;;33.07;19.25;102024.88;4994347;28;20033;-69
2021/07/08 09:24:32;;;;;;;2.38;1.15;;;;;;;33.19;18.58;102028.84;4990892;28;20293;-68
2021/07/08 09:26:58;;;;;;;3.28;0.95;;;;;;;32.77;18.27;102029.38;4999254;28;20046;-69
2021/07/08 09:29:25;;;;;;;1.70;0.60;;;;;;;32.53;17.19;102033.09;5002035;28;20026;-68
2021/07/08 09:32:16;;;;;;;3.42;1.17;;;;;;;32.44;17.36;102029.63;5008528;28;20135;-69
2021/07/08 09:34:46;;;;;;;3.33;1.10;;;;;;;32.06;18.95;102028.66;4993412;28;20054;-69
2021/07/08 09:37:14;;;;;;;4.55;0.90;;;;;;;31.07;19.29;102025.34;4999472;28;20053;-68
2021/07/08 09:39:47;;;;;;;1.90;0.57;;;;;;;32.07;19.53;102022.19;4999132;28;20037;-70
2021/07/08 09:42:15;;;;;;;5.30;1.60;;;;;;;31.68;18.50;102017.63;4997650;28;20072;-69
2021/07/08 09:44:41;;;;;;;3.75;0.57;;;;;;;30.79;20.59;102025.66;5001499;28;20043;-68
2021/07/08 09:47:22;;;;;;;1.83;0.73;;;;;;;30.80;20.67;102020.09;5000847;28;20113;-70
2021/07/08 09:49:47;;;;;;;1.25;0.60;;;;;;;30.78;18.89;102018.59;5001288;28;20517;-69
2021/07/08 09:52:13;;;;;;;4.10;0.90;;;;;;;31.22;18.26;102023.63;4999133;28;20040;-69
2021/07/08 09:55:00;;;;;;;2.03;0.52;;;;;;;30.31;18.13;102029.94;5011705;28;20045;-69
2021/07/08 09:57:41;;;;;;;1.25;0.93;;;;;;;30.55;19.01;102027.31;4999273;28;20121;-71
2021/07/08 10:00:29;;;;;;;3.20;0.70;;;;;;;30.56;19.62;102023.63;5000213;28;20042;-69
2021/07/08 10:02:55;;;;;;;5.03;1.15;;;;;;;29.49;20.87;102025.03;5000370;28;20132;-69
2021/07/08 10:05:22;;;;;;;2.70;1.10;;;;;;;29.73;21.35;102016.28;4997404;28;20105;-69
2021/07/08 10:07:49;;;;;;;4.28;1.40;;;;;;;29.79;21.15;101998.59;4995812;28;20569;-70
2021/07/08 10:10:15;;;;;;;5.70;1.25;;;;;;;29.24;21.72;101999.81;5001980;28;20058;-70
2021/07/08 10:12:42;;;;;;;5.13;0.90;;;;;;;29.15;22.06;102001.59;5002833;28;20061;-68
2021/07/08 10:15:10;;;;;;;1.75;0.73;;;;;;;28.48;22.75;102008.38;4996709;28;20134;-69
2021/07/08 10:17:37;;;;;;;4.80;1.00;;;;;;;29.31;22.09;102000.88;5004949;28;20033;-69
2021/07/08 10:20:09;;;;;;;3.00;1.23;;;;;;;29.62;20.62;101999.53;5001388;28;20564;-69
2021/07/08 10:22:36;;;;;;;3.42;1.23;;;;;;;29.72;21.08;102002.94;5017331;28;20077;-68
2021/07/08 10:25:07;;;;;;;1.42;0.52;;;;;;;30.39;22.51;102005.72;5000376;28;20053;-69
2021/07/08 10:27:36;;;;;;;2.78;1.00;;;;;;;29.75;22.17;101994.53;5005254;28;20574;-69
2021/07/08 10:30:03;;;;;;;5.10;1.00;;;;;;;30.11;22.33;101991.66;5005878;28;20091;-69
2021/07/08 10:32:30;;;;;;;4.38;0.95;;;;;;;29.87;21.84;101995.09;5002199;28;20049;-69
2021/07/08 10:34:56;;;;;;;2.95;0.82;;;;;;;30.57;20.74;101992.09;5002490;28;20041;-70
2021/07/08 10:37:33;;;;;;;3.55;1.25;;;;;;;29.73;21.18;101996.56;5003707;28;20408;-69
2021/07/08 10:40:01;;;;;;;2.22;0.70;;;;;;;29.55;21.61;102000.16;5004570;28;20033;-69
2021/07/08 10:42:48;;;;;;;1.80;1.05;;;;;;;29.57;21.41;102003.53;5009907;28;20041;-69
2021/07/08 10:45:23;;;;;;;2.55;0.60;;;;;;;29.86;20.37;101994.25;5000642;28;20109;-68
2021/07/08 10:47:50;;;;;;;2.08;0.88;;;;;;;29.87;21.25;101995.09;5019379;28;20038;-68
2021/07/08 10:50:43;;;;;;;1.30;0.52;;;;;;;29.38;22.33;102001.06;5005712;28;20069;-69
2021/07/08 10:53:34;;;;;;;5.20;3.72;;;;;;;25.77;32.46;102012.03;5002816;28;20057;-69
2021/07/08 10:56:07;;;;;;;6.25;4.05;;;;;;;25.38;33.60;102011.81;4978756;28;20046;-69
2021/07/08 10:58:43;;;;;;;9.43;4.20;;;;;;;25.62;33.44;102013.38;5009469;28;20125;-67
2021/07/08 11:01:30;;;;;;;9.35;4.88;;;;;;;25.07;34.64;102020.78;5003294;28;20030;-67
2021/07/08 11:04:03;;;;;;;12.30;4.88;;;;;;;25.42;34.18;102013.25;5005116;28;20552;-68
2021/07/08 11:06:43;;;;;;;11.43;5.70;;;;;;;25.35;33.88;102017.44;5017903;28;20026;-69
2021/07/08 11:09:18;;;;;;;6.28;5.10;;;;;;;24.97;34.24;102018.00;5003422;28;20092;-68
2021/07/08 11:11:48;;;;;;;5.43;4.93;;;;;;;24.84;34.40;102012.84;5017583;28;20046;-70
2021/07/08 11:14:18;;;;;;;8.18;4.43;;;;;;;25.20;34.09;102013.41;5017646;28;20109;-69
2021/07/08 11:17:14;;;;;;;10.40;5.97;;;;;;;25.71;31.99;102015.28;5002301;28;21020;-70
2021/07/08 11:19:45;;;;;;;12.48;5.90;;;;;;;25.40;32.58;102025.94;4996437;28;20219;-70
2021/07/08 11:22:33;;;;;;;8.77;5.03;;;;;;;24.84;33.01;102028.88;5007894;28;20044;-68
2021/07/08 11:24:59;;;;;;;8.15;5.18;;;;;;;24.90;33.08;102020.31;5001619;28;20128;-70